Time;durP1;ratioP1;P1;durP2;ratioP2;P2;SDS_P1;SDS_P2;PMS_P1;PMS_P2;Temp;Humidity;BMP_temperature;BMP_pressure;BME280_temperature;BME280_humidity;BME280_pressure;Samples;Min_cycle;Max_cycle;Signal;HPM_P1;HPM_P2
2024/04/07 00:00:38;;;;;;;17.67;9.57;;;384.90;2329.60;;;;;;5067663;28;20040;-74
2024/04/07 00:03:04;;;;;;;13.82;8.15;;;384.90;2329.60;;;;;;5079304;28;20032;-72
2024/04/07 00:05:29;;;;;;;13.30;8.13;;;384.80;2329.60;;;;;;5086365;28;20034;-73
2024/04/07 00:07:56;;;;;;;7.47;5.53;;;384.80;2329.60;;;;;;5076938;28;20028;-71
2024/04/07 00:10:22;;;;;;;8.50;5.95;;;384.80;2329.60;;;;;;5071338;28;20033;-74
2024/04/07 00:12:48;;;;;;;13.23;5.47;;;384.80;2329.60;;;;;;5072569;28;20021;-75
2024/04/07 00:15:13;;;;;;;15.18;6.20;;;384.60;2329.60;;;;;;5071672;28;20047;-71
2024/04/07 00:17:40;;;;;;;7.60;5.07;;;384.50;2329.60;;;;;;5073702;28;20050;-73
2024/04/07 00:20:06;;;;;;;9.98;5.05;;;384.40;2329.60;;;;;;5072598;28;20029;-74
2024/04/07 00:22:32;;;;;;;14.27;9.65;;;384.60;2329.60;;;;;;5074319;28;20015;-74
2024/04/07 00:24:58;;;;;;;9.25;5.20;;;384.50;2329.60;;;;;;5077434;28;20362;-76
2024/04/07 00:27:27;;;;;;;6.72;4.93;;;384.50;2329.60;;;;;;5086135;28;20070;-73
2024/04/07 00:29:53;;;;;;;8.50;4.35;;;384.20;2329.60;;;;;;5086518;28;20077;-74
2024/04/07 00:32:19;;;;;;;21.88;9.82;;;384.10;2329.60;;;;;;5087072;28;20040;-76
2024/04/07 00:34:49;;;;;;;8.38;5.45;;;384.20;2329.60;;;;;;5071175;28;20382;-73
2024/04/07 00:37:15;;;;;;;14.65;9.55;;;384.30;2329.60;;;;;;5090602;28;20474;-72
2024/04/07 00:39:45;;;;;;;14.07;8.57;;;384.30;2329.60;;;;;;5077086;28;20045;-75
2024/04/07 00:42:10;;;;;;;8.00;5.03;;;384.20;2329.60;;;;;;5058397;28;20021;-73
2024/04/07 00:44:37;;;;;;;21.10;10.95;;;384.10;2329.60;;;;;;5071922;28;20039;-69
2024/04/07 00:47:04;;;;;;;30.52;19.25;;;384.10;2329.60;;;;;;5059687;28;20073;-71
2024/04/07 00:49:31;;;;;;;39.55;21.30;;;384.10;2329.60;;;;;;5072013;28;20031;-70
2024/04/07 00:51:58;;;;;;;15.88;6.93;;;384.10;2329.60;;;;;;5076833;28;20463;-73
2024/04/07 00:54:25;;;;;;;12.23;6.07;;;384.10;2329.60;;;;;;5082427;28;20427;-73
2024/04/07 00:56:51;;;;;;;16.40;9.45;;;384.10;2329.60;;;;;;5087583;28;20373;-76
2024/04/07 00:59:17;;;;;;;23.75;11.65;;;384.20;2329.60;;;;;;5086326;28;20043;-74
2024/04/07 01:01:43;;;;;;;45.95;22.10;;;384.10;2329.60;;;;;;5084949;28;20029;-77
2024/04/07 01:04:09;;;;;;;14.45;5.90;;;384.20;2329.60;;;;;;5087494;28;20020;-71
2024/04/07 01:06:35;;;;;;;118.63;52.55;;;384.20;2329.60;;;;;;5085835;28;20115;-73
2024/04/07 01:09:01;;;;;;;28.27;11.90;;;384.20;2329.60;;;;;;5069788;28;20033;-69
2024/04/07 01:11:27;;;;;;;14.15;7.13;;;384.00;2329.60;;;;;;5070546;28;20036;-74
2024/04/07 01:13:53;;;;;;;7.88;4.93;;;384.10;2329.60;;;;;;5069157;28;20025;-71
2024/04/07 01:16:20;;;;;;;169.70;71.22;;;384.10;2329.60;;;;;;5070488;28;20043;-73
2024/04/07 01:18:47;;;;;;;19.50;9.00;;;384.10;2329.60;;;;;;5069702;28;20036;-75
2024/04/07 01:21:13;;;;;;;72.55;31.92;;;384.10;2329.60;;;;;;5071081;28;20024;-75
2024/04/07 01:23:39;;;;;;;92.00;43.35;;;384.10;2329.60;;;;;;5078892;28;20056;-74
2024/04/07 01:26:05;;;;;;;72.82;36.10;;;384.10;2329.60;;;;;;5076627;28;20066;-73
2024/04/07 01:28:31;;;;;;;23.65;10.68;;;384.10;2329.60;;;;;;5076884;28;20029;-76
2024/04/07 01:30:57;;;;;;;12.43;7.53;;;384.10;2329.60;;;;;;5073783;28;20036;-70
2024/04/07 01:33:23;;;;;;;15.20;8.15;;;384.10;2329.60;;;;;;5082349;28;20035;-70
2024/04/07 01:35:49;;;;;;;7.70;4.38;;;384.10;2329.60;;;;;;5089999;28;20027;-75
2024/04/07 01:38:15;;;;;;;87.65;43.40;;;384.00;2329.60;;;;;;5089015;28;20048;-74
2024/04/07 01:40:43;;;;;;;97.55;50.53;;;384.00;2329.60;;;;;;5089979;28;20436;-75
2024/04/07 01:43:09;;;;;;;21.23;12.82;;;359.30;2329.60;;;;;;5088099;28;20028;-73
2024/04/07 01:45:35;;;;;;;9.77;6.00;;;359.30;2329.60;;;;;;5090222;28;20031;-73
2024/04/07 01:48:01;;;;;;;43.08;22.35;;;359.20;2329.60;;;;;;5089106;28;20351;-74
2024/04/07 01:50:27;;;;;;;15.85;7.65;;;359.20;2329.60;;;;;;5090152;28;20016;-73
2024/04/07 01:52:53;;;;;;;22.92;11.40;;;359.20;2329.60;;;;;;5088744;28;20031;-74
2024/04/07 01:55:19;;;;;;;7.68;4.53;;;359.10;2329.60;;;;;;5089695;28;20024;-74
2024/04/07 01:57:45;;;;;;;9.05;3.80;;;359.20;2329.60;;;;;;5088753;28;20024;-74
2024/04/07 02:00:11;;;;;;;13.55;9.48;;;359.10;2329.60;;;;;;5089547;28;20046;-73
2024/04/07 02:02:37;;;;;;;12.30;6.75;;;359.10;2329.60;;;;;;5089034;28;20023;-73
2024/04/07 02:05:05;;;;;;;7.43;4.72;;;359.10;2329.60;;;;;;5088820;28;20485;-73
2024/04/07 02:07:34;;;;;;;7.88;4.20;;;359.00;2329.60;;;;;;5086375;28;20058;-75
2024/04/07 02:10:02;;;;;;;12.27;7.03;;;359.00;2329.60;;;;;;5078679;28;20043;-75
2024/04/07 02:12:28;;;;;;;7.07;4.85;;;358.90;2329.60;;;;;;5088651;28;20016;-75
2024/04/07 02:14:54;;;;;;;7.82;3.92;;;358.90;2329.60;;;;;;5088658;28;20546;-73
2024/04/07 02:17:20;;;;;;;9.32;4.28;;;358.90;2329.60;;;;;;5089270;28;20023;-71
2024/04/07 02:19:51;;;;;;;5.38;3.88;;;358.90;2329.60;;;;;;5088636;28;20524;-74
2024/04/07 02:22:18;;;;;;;7.28;3.65;;;358.80;2329.60;;;;;;5087755;28;20031;-76
2024/04/07 02:24:44;;;;;;;5.57;3.50;;;358.80;2329.60;;;;;;5087657;28;20031;-71
2024/04/07 02:27:10;;;;;;;5.15;3.70;;;358.80;2329.60;;;;;;5088768;28;20012;-70
2024/04/07 02:29:36;;;;;;;6.40;4.05;;;358.80;2329.60;;;;;;5088479;28;20099;-73
2024/04/07 02:32:02;;;;;;;4.65;3.50;;;358.80;2329.60;;;;;;5088616;28;20103;-74
2024/04/07 02:34:28;;;;;;;5.60;3.47;;;358.80;2329.60;;;;;;5088420;28;20056;-70
2024/04/07 02:36:53;;;;;;;9.68;4.00;;;358.80;2329.60;;;;;;5088182;28;20458;-74
2024/04/07 02:39:21;;;;;;;7.20;3.10;;;358.70;2329.60;;;;;;5088144;28;20032;-73
2024/04/07 02:41:47;;;;;;;7.38;3.92;;;358.50;2329.60;;;;;;5089056;28;20493;-73
2024/04/07 02:44:15;;;;;;;11.65;7.22;;;333.70;2329.60;;;;;;5077700;28;20367;-73
2024/04/07 02:49:26;;;;;;;6.70;4.38;;;333.70;2329.60;;;;;;5087216;28;20053;-71
2024/04/07 02:51:52;;;;;;;7.47;3.80;;;358.50;2329.60;;;;;;5088949;28;20147;-74
2024/04/07 02:54:19;;;;;;;8.60;4.47;;;358.50;2329.60;;;;;;5088115;28;20465;-73
2024/04/07 02:56:44;;;;;;;5.57;3.22;;;358.60;2329.60;;;;;;5088797;28;20055;-75
2024/04/07 02:59:10;;;;;;;8.05;4.90;;;358.70;2329.60;;;;;;5087944;28;20059;-76
2024/04/07 03:01:37;;;;;;;7.53;3.80;;;358.70;2329.60;;;;;;5089155;28;20027;-71
2024/04/07 03:04:02;;;;;;;5.68;3.65;;;358.80;2329.60;;;;;;5087837;28;20070;-73
2024/04/07 03:06:28;;;;;;;5.30;3.58;;;358.80;2329.60;;;;;;5088557;28;20095;-73
2024/04/07 03:08:57;;;;;;;6.72;3.65;;;358.80;2329.60;;;;;;5087844;28;20028;-72
2024/04/07 03:11:23;;;;;;;4.75;3.15;;;358.80;2329.60;;;;;;5088557;28;20020;-72
2024/04/07 03:13:49;;;;;;;6.60;3.72;;;358.90;2329.60;;;;;;5087811;28;20489;-75
2024/04/07 03:16:15;;;;;;;6.15;3.08;;;358.80;2329.60;;;;;;5088923;28;20016;-76
2024/04/07 03:18:41;;;;;;;7.65;3.63;;;358.90;2329.60;;;;;;5087353;28;20028;-75
2024/04/07 03:21:07;;;;;;;7.30;3.28;;;358.90;2329.60;;;;;;5088950;28;20027;-70
2024/04/07 03:23:33;;;;;;;6.93;3.20;;;358.90;2329.60;;;;;;5088009;28;20032;-72
2024/04/07 03:25:59;;;;;;;4.95;3.20;;;358.90;2329.60;;;;;;5088599;28;20461;-71
2024/04/07 03:28:25;;;;;;;6.05;4.03;;;358.90;2329.60;;;;;;5087557;28;20466;-74
2024/04/07 03:30:52;;;;;;;10.93;7.22;;;358.90;2329.60;;;;;;5088505;28;20028;-73
2024/04/07 03:33:18;;;;;;;6.50;3.75;;;358.80;2329.60;;;;;;5087693;28;20059;-73
2024/04/07 03:35:44;;;;;;;7.07;3.85;;;358.60;2329.60;;;;;;5088140;28;20477;-73
2024/04/07 03:38:10;;;;;;;5.78;3.35;;;358.40;2329.60;;;;;;5090102;28;20048;-74
2024/04/07 03:40:40;;;;;;;7.70;3.97;;;333.70;2329.60;;;;;;5091208;28;20031;-71
2024/04/07 03:43:07;;;;;;;5.72;3.67;;;333.60;2329.60;;;;;;5091168;28;20089;-73
2024/04/07 03:45:33;;;;;;;7.18;3.90;;;333.60;2329.60;;;;;;5092265;28;20028;-74
2024/04/07 03:47:59;;;;;;;5.00;3.60;;;333.70;2329.60;;;;;;5091123;28;20020;-71
2024/04/07 03:50:25;;;;;;;6.63;3.50;;;358.40;2329.60;;;;;;5092146;28;20020;-72
2024/04/07 03:52:51;;;;;;;9.98;3.63;;;358.50;2329.60;;;;;;5090497;28;20077;-71
2024/04/07 03:55:17;;;;;;;7.57;4.25;;;358.50;2329.60;;;;;;5092080;28;20098;-73
2024/04/07 03:57:43;;;;;;;9.43;3.55;;;358.60;2329.60;;;;;;5090426;28;20074;-73
2024/04/07 04:00:10;;;;;;;6.63;3.17;;;358.60;2329.60;;;;;;5092055;28;20173;-73
2024/04/07 04:02:35;;;;;;;6.47;3.75;;;358.70;2329.60;;;;;;5091200;28;20501;-73
2024/04/07 04:05:03;;;;;;;7.70;3.50;;;358.70;2329.60;;;;;;5091793;28;20016;-74
2024/04/07 04:07:30;;;;;;;6.20;3.78;;;358.70;2329.60;;;;;;5090668;28;20012;-74
2024/04/07 04:09:58;;;;;;;7.10;3.17;;;358.70;2329.60;;;;;;5092076;28;20570;-74
2024/04/07 04:12:28;;;;;;;5.60;3.22;;;358.80;2329.60;;;;;;5090730;28;20020;-75
2024/04/07 04:14:55;;;;;;;7.03;3.72;;;358.70;2329.60;;;;;;5091572;28;20274;-75
2024/04/07 04:17:21;;;;;;;8.93;3.78;;;358.60;2329.60;;;;;;5091041;28;20028;-73
2024/04/07 04:19:47;;;;;;;5.18;3.40;;;358.50;2329.60;;;;;;5091070;28;20036;-73
2024/04/07 04:22:13;;;;;;;8.85;4.43;;;358.50;2329.60;;;;;;5091447;28;20039;-73
2024/04/07 04:24:39;;;;;;;6.28;3.15;;;358.50;2329.60;;;;;;5091246;28;20055;-76
2024/04/07 04:27:06;;;;;;;5.93;3.70;;;358.50;2329.60;;;;;;5091394;28;20055;-72
2024/04/07 04:29:36;;;;;;;8.52;5.00;;;358.60;2329.60;;;;;;5090737;28;20036;-73
2024/04/07 04:32:03;;;;;;;5.50;3.75;;;358.70;2329.60;;;;;;5090658;28;20119;-73
2024/04/07 04:34:32;;;;;;;11.35;3.58;;;358.80;2329.60;;;;;;5090611;28;20024;-71
2024/04/07 04:36:58;;;;;;;8.18;4.25;;;358.90;2329.60;;;;;;5090399;28;20030;-72
2024/04/07 04:39:24;;;;;;;6.45;3.50;;;358.80;2329.60;;;;;;5090461;28;20111;-73
2024/04/07 04:41:50;;;;;;;5.50;3.42;;;358.80;2329.60;;;;;;5090522;28;20017;-74
2024/04/07 04:44:17;;;;;;;7.32;3.95;;;358.70;2329.60;;;;;;5090254;28;20076;-74
2024/04/07 04:46:45;;;;;;;5.95;3.90;;;358.60;2329.60;;;;;;5090850;28;20047;-72
2024/04/07 04:49:12;;;;;;;9.23;4.22;;;358.60;2329.60;;;;;;5089515;28;20114;-72
2024/04/07 04:51:38;;;;;;;6.28;3.55;;;358.70;2329.60;;;;;;5089619;28;20020;-74
2024/04/07 04:54:05;;;;;;;5.45;4.20;;;358.90;2329.60;;;;;;5078795;28;20031;-72
2024/04/07 04:56:31;;;;;;;10.35;4.03;;;358.80;2329.60;;;;;;5088542;28;20359;-74
2024/04/07 04:58:57;;;;;;;5.22;3.75;;;359.00;2329.60;;;;;;5090187;28;20028;-73
2024/04/07 05:01:24;;;;;;;6.10;4.05;;;359.10;2329.60;;;;;;5089967;28;20024;-77
2024/04/07 05:03:50;;;;;;;5.68;4.20;;;359.20;2329.60;;;;;;5090055;28;20024;-76
2024/04/07 05:06:17;;;;;;;11.55;4.07;;;384.00;2329.60;;;;;;5090735;28;20480;-72
2024/04/07 05:08:43;;;;;;;86.15;74.20;;;384.30;2329.60;;;;;;5090065;28;20114;-74
2024/04/07 05:11:10;;;;;;;8.60;6.13;;;435.30;2355.20;;;;;;5090954;28;20881;-72
2024/04/07 05:13:36;;;;;;;6.93;5.00;;;460.90;2380.80;;;;;;5090104;28;20054;-74
2024/04/07 05:16:02;;;;;;;4.55;4.00;;;486.40;2380.80;;;;;;5090399;28;20090;-74
2024/04/07 05:18:28;;;;;;;7.40;5.10;;;512.20;2252.80;;;;;;5089939;28;20028;-71
2024/04/07 05:20:58;;;;;;;6.97;4.45;;;537.80;2176.00;;;;;;5088772;28;20461;-74
2024/04/07 05:23:24;;;;;;;5.47;3.30;;;563.50;2048.00;;;;;;5089719;28;20032;-73
2024/04/07 05:25:51;;;;;;;7.20;4.63;;;538.20;2073.60;;;;;;5089785;28;20024;-74
2024/04/07 05:28:16;;;;;;;7.28;4.07;;;538.10;2073.60;;;;;;5088135;28;20020;-73
2024/04/07 05:30:43;;;;;;;6.50;3.83;;;512.90;2073.60;;;;;;5089270;28;20233;-72
2024/04/07 05:33:09;;;;;;;4.95;4.03;;;512.20;2150.40;;;;;;5087542;28;20021;-72
2024/04/07 05:35:35;;;;;;;9.35;5.32;;;537.80;2099.20;;;;;;5089203;28;20016;-77
2024/04/07 05:38:02;;;;;;;7.93;5.60;;;538.10;2099.20;;;;;;5089210;28;20040;-72
2024/04/07 05:40:29;;;;;;;11.25;5.50;;;564.00;1996.80;;;;;;5090030;28;20054;-76
2024/04/07 05:42:55;;;;;;;8.80;6.28;;;589.00;1971.20;;;;;;5089560;28;20048;-73
2024/04/07 05:45:21;;;;;;;8.40;5.53;;;615.00;1843.20;;;;;;5089071;28;20069;-77
2024/04/07 05:47:54;;;;;;;8.65;5.03;;;665.70;1740.80;;;;;;5075117;28;20031;-75
2024/04/07 05:50:20;;;;;;;8.80;5.47;;;666.50;1664.00;;;;;;5064243;28;20103;-71
2024/04/07 05:52:46;;;;;;;6.70;5.68;;;691.80;1612.80;;;;;;5088654;28;20031;-76
2024/04/07 05:55:12;;;;;;;6.75;5.45;;;716.90;1612.80;;;;;;5089615;28;20466;-75
2024/04/07 05:57:39;;;;;;;9.13;5.47;;;717.10;1587.20;;;;;;5089140;28;20028;-76
2024/04/07 06:00:09;;;;;;;9.30;5.47;;;742.70;1536.00;;;;;;5087943;28;20040;-78
2024/04/07 06:02:36;;;;;;;10.93;5.32;;;743.10;1510.40;;;;;;5089056;28;20489;-79
2024/04/07 06:05:02;;;;;;;7.68;5.60;;;717.70;1536.00;;;;;;5089389;28;20020;-77
2024/04/07 06:07:29;;;;;;;6.13;5.50;;;743.30;1484.80;;;;;;5088696;28;20024;-78
2024/04/07 06:09:55;;;;;;;6.90;5.18;;;768.90;1459.20;;;;;;5083927;28;20028;-76
2024/04/07 06:12:21;;;;;;;8.00;6.32;;;794.40;1433.60;;;;;;5088825;28;20027;-77
2024/04/07 06:14:47;;;;;;;6.82;6.07;;;819.60;1408.00;;;;;;5087829;28;20381;-76
2024/04/07 06:17:14;;;;;;;9.15;6.60;;;845.00;1382.40;;;;;;5088782;28;20039;-76
2024/04/07 06:19:40;;;;;;;6.70;6.00;;;870.70;1305.60;;;;;;5088504;28;20664;-75
2024/04/07 06:22:06;;;;;;;8.50;7.38;;;871.30;1280.00;;;;;;5089136;28;20020;-75
2024/04/07 06:24:32;;;;;;;8.77;6.05;;;896.60;1254.40;;;;;;5088968;28;20020;-79
2024/04/07 06:26:58;;;;;;;8.95;7.10;;;921.70;1254.40;;;;;;5088966;28;20061;-76
2024/04/07 06:29:24;;;;;;;6.38;5.68;;;922.20;1228.80;;;;;;5088877;28;20016;-78
2024/04/07 06:31:50;;;;;;;11.23;6.10;;;947.20;1203.20;;;;;;5076085;28;20116;-76
2024/04/07 06:34:16;;;;;;;8.23;7.35;;;947.40;1203.20;;;;;;5085791;28;20024;-81
2024/04/07 06:36:42;;;;;;;7.20;6.50;;;948.10;1152.00;;;;;;5088053;28;20024;-77
2024/04/07 06:39:08;;;;;;;7.15;6.38;;;973.50;1152.00;;;;;;5088915;28;20072;-77
2024/04/07 06:41:37;;;;;;;7.07;6.07;;;998.60;1152.00;;;;;;5088211;28;20016;-81
2024/04/07 06:44:04;;;;;;;7.40;6.70;;;999.30;1100.80;;;;;;5088506;28;20043;-76
2024/04/07 06:46:30;;;;;;;9.93;6.45;;;998.80;1126.40;;;;;;5087924;28;20073;-76
2024/04/07 06:48:56;;;;;;;8.20;7.40;;;973.60;1152.00;;;;;;5088646;28;20134;-77
2024/04/07 06:51:22;;;;;;;8.27;7.20;;;973.60;1126.40;;;;;;5088100;28;20027;-76
2024/04/07 06:53:48;;;;;;;7.55;6.72;;;998.80;1100.80;;;;;;5079974;28;20025;-78
2024/04/07 06:56:14;;;;;;;12.02;7.60;;;999.00;1100.80;;;;;;5071074;28;20024;-78
2024/04/07 06:58:40;;;;;;;14.98;8.75;;;1024.90;1049.60;;;;;;5088123;28;20512;-75
2024/04/07 07:01:06;;;;;;;9.90;7.78;;;1024.30;1075.20;;;;;;5088495;28;20387;-78
2024/04/07 07:03:31;;;;;;;8.52;7.40;;;1024.00;1075.20;;;;;;5088277;28;20016;-76
2024/04/07 07:05:58;;;;;;;8.05;7.22;;;1024.50;1049.60;;;;;;5086116;28;20104;-76
2024/04/07 07:08:24;;;;;;;7.53;6.47;;;1024.40;1049.60;;;;;;5079844;28;20085;-71
2024/04/07 07:11:00;;;;;;;7.10;6.43;;;1049.80;1049.60;;;;;;5087054;28;20031;-74
2024/04/07 07:13:30;;;;;;;6.72;6.13;;;1050.20;1049.60;;;;;;5087230;28;20027;-76
2024/04/07 07:15:57;;;;;;;8.40;7.53;;;1075.60;998.40;;;;;;5081844;28;20112;-75
2024/04/07 07:18:23;;;;;;;6.80;6.20;;;1075.90;998.40;;;;;;5081809;28;20043;-77
2024/04/07 07:20:49;;;;;;;7.85;6.45;;;1075.90;998.40;;;;;;5089748;28;20106;-77
2024/04/07 07:23:16;;;;;;;6.82;6.22;;;1075.70;998.40;;;;;;5089637;28;20024;-74
2024/04/07 07:25:44;;;;;;;8.98;7.25;;;1101.00;1024.00;;;;;;5092040;28;20055;-79
2024/04/07 07:28:11;;;;;;;7.55;6.80;;;1101.40;998.40;;;;;;5091810;28;20028;-76
2024/04/07 07:30:37;;;;;;;9.40;6.55;;;1101.20;998.40;;;;;;5092650;28;20088;-73
2024/04/07 07:33:03;;;;;;;9.32;8.43;;;1101.00;998.40;;;;;;5091877;28;20030;-77
2024/04/07 07:35:32;;;;;;;8.25;7.45;;;1075.30;1024.00;;;;;;5092270;28;20043;-74
2024/04/07 07:37:58;;;;;;;9.40;8.40;;;1075.60;1024.00;;;;;;5091666;28;20078;-73
2024/04/07 07:40:24;;;;;;;14.23;11.40;;;1050.00;1049.60;;;;;;5091838;28;20064;-77
2024/04/07 07:42:50;;;;;;;7.68;6.40;;;;;;;;;;5091443;28;20028;-74
2024/04/07 07:45:16;;;;;;;12.98;9.05;;;1050.30;1024.00;;;;;;5091963;28;20481;-80
2024/04/07 07:47:43;;;;;;;12.25;9.88;;;1049.90;1075.20;;;;;;5091235;28;20135;-78
2024/04/07 07:50:09;;;;;;;14.65;11.93;;;1024.90;1100.80;;;;;;5091614;28;20092;-77
2024/04/07 07:52:35;;;;;;;14.27;12.77;;;1024.70;1075.20;;;;;;5090476;28;20040;-77
2024/04/07 07:55:01;;;;;;;13.95;12.40;;;998.80;1126.40;;;;;;5092229;28;20464;-76
2024/04/07 07:57:27;;;;;;;12.07;11.00;;;1024.20;1100.80;;;;;;5091734;28;20028;-76
2024/04/07 07:59:53;;;;;;;13.50;10.55;;;1049.90;1075.20;;;;;;5091220;28;20379;-79
2024/04/07 08:02:19;;;;;;;10.02;8.98;;;1050.50;1075.20;;;;;;5091440;28;20024;-77
2024/04/07 08:04:44;;;;;;;10.73;8.27;;;1024.30;1100.80;;;;;;5086797;28;20074;-71
2024/04/07 08:07:10;;;;;;;11.65;8.68;;;1049.80;1075.20;;;;;;5061891;28;20025;-75
2024/04/07 08:09:36;;;;;;;8.80;7.95;;;1075.20;1075.20;;;;;;5067913;28;20028;-76
2024/04/07 08:12:02;;;;;;;10.15;8.23;;;1050.50;1049.60;;;;;;5072282;28;20417;-72
2024/04/07 08:14:28;;;;;;;9.15;8.38;;;1024.50;1075.20;;;;;;5072583;28;20028;-75
2024/04/07 08:16:54;;;;;;;9.07;8.35;;;1024.60;1049.60;;;;;;5068709;28;20040;-74
2024/04/07 08:19:19;;;;;;;9.43;8.57;;;1075.30;1049.60;;;;;;5073969;28;20036;-73
2024/04/07 08:21:45;;;;;;;8.63;7.82;;;1076.10;998.40;;;;;;5064647;28;20502;-73
2024/04/07 08:24:11;;;;;;;8.15;7.35;;;1075.90;998.40;;;;;;5073138;28;20466;-71
2024/04/07 08:26:38;;;;;;;8.68;7.82;;;1075.90;998.40;;;;;;5070500;28;20028;-76
2024/04/07 08:29:04;;;;;;;7.47;6.72;;;1075.40;1024.00;;;;;;5077341;28;20116;-73
2024/04/07 08:31:30;;;;;;;9.52;7.35;;;1075.20;1024.00;;;;;;5064402;28;20028;-71
2024/04/07 08:33:55;;;;;;;9.00;6.78;;;1076.10;972.80;;;;;;5069413;28;20032;-72
2024/04/07 08:36:21;;;;;;;7.65;6.90;;;1076.10;998.40;;;;;;5064603;28;20556;-73
2024/04/07 08:38:47;;;;;;;7.13;6.43;;;1050.10;1024.00;;;;;;5073363;28;20052;-72
2024/04/07 08:41:14;;;;;;;7.75;6.93;;;1075.30;998.40;;;;;;5063315;28;20074;-76
2024/04/07 08:43:41;;;;;;;7.65;6.88;;;1050.40;1024.00;;;;;;5074659;28;20056;-77
2024/04/07 08:46:14;;;;;;;8.02;7.18;;;1024.20;1049.60;;;;;;5069638;28;20028;-71
2024/04/07 08:48:50;;;;;;;7.47;6.63;;;998.60;1075.20;;;;;;5066815;28;20086;-73
2024/04/07 08:51:16;;;;;;;9.85;6.90;;;973.20;1075.20;;;;;;5064820;28;20170;-76
2024/04/07 08:53:43;;;;;;;6.05;5.35;;;922.40;1152.00;;;;;;5070992;28;20027;-78
2024/04/07 08:56:10;;;;;;;8.23;5.80;;;896.40;1152.00;;;;;;5062237;28;20029;-79
2024/04/07 08:58:37;;;;;;;8.38;4.75;;;870.60;1203.20;;;;;;5067079;28;20098;-75
2024/04/07 09:01:04;;;;;;;10.98;5.40;;;845.20;1254.40;;;;;;5061075;28;20021;-75
2024/04/07 09:03:31;;;;;;;7.32;4.78;;;820.10;1254.40;;;;;;5071373;28;20048;-74
2024/04/07 09:05:58;;;;;;;7.70;4.72;;;819.60;1280.00;;;;;;5058993;28;20033;-76
2024/04/07 09:08:24;;;;;;;8.98;5.57;;;768.90;1356.80;;;;;;5067320;28;20119;-76
2024/04/07 09:10:50;;;;;;;9.93;5.45;;;768.90;1331.20;;;;;;5073748;28;20534;-72
2024/04/07 09:13:16;;;;;;;6.25;4.60;;;768.90;1356.80;;;;;;5073406;28;20154;-75
2024/04/07 09:15:43;;;;;;;8.52;4.90;;;768.80;1356.80;;;;;;5066741;28;20028;-78
2024/04/07 09:18:11;;;;;;;6.15;4.10;;;768.60;1382.40;;;;;;5069793;28;20104;-73
2024/04/07 09:20:37;;;;;;;9.68;4.65;;;768.40;1382.40;;;;;;5071063;28;20034;-72
2024/04/07 09:23:03;;;;;;;6.13;4.20;;;768.10;1408.00;;;;;;5063502;28;20056;-72
2024/04/07 09:25:33;;;;;;;8.65;4.63;;;743.10;1433.60;;;;;;5061933;28;20115;-75
2024/04/07 09:27:59;;;;;;;12.40;4.53;;;743.00;1433.60;;;;;;5069236;28;20021;-72
2024/04/07 09:30:25;;;;;;;7.40;4.05;;;743.20;1459.20;;;;;;5073096;28;20103;-78
2024/04/07 09:32:51;;;;;;;8.18;4.63;;;743.00;1433.60;;;;;;5064873;28;20163;-71
2024/04/07 09:35:17;;;;;;;18.08;11.98;;;742.40;1484.80;;;;;;5068844;28;20016;-71
2024/04/07 09:37:43;;;;;;;7.38;5.03;;;742.60;1459.20;;;;;;5071498;28;20052;-72
2024/04/07 09:40:10;;;;;;;5.88;4.38;;;742.60;1459.20;;;;;;5065220;28;20127;-73
2024/04/07 09:42:38;;;;;;;9.02;6.70;;;742.50;1433.60;;;;;;5070957;28;20434;-74
2024/04/07 09:45:11;;;;;;;4.38;3.35;;;742.70;1433.60;;;;;;5058480;28;20036;-78
2024/04/07 09:47:39;;;;;;;8.00;3.50;;;742.90;1433.60;;;;;;5070249;28;20020;-73
2024/04/07 09:50:14;;;;;;;7.95;3.90;;;742.90;1408.00;;;;;;5061615;28;20032;-71
2024/04/07 09:52:45;;;;;;;13.05;4.20;;;742.60;1408.00;;;;;;5058370;28;20460;-72
2024/04/07 09:55:15;;;;;;;10.18;4.20;;;742.80;1433.60;;;;;;5059106;28;20434;-73
2024/04/07 09:57:41;;;;;;;12.35;5.88;;;742.80;1408.00;;;;;;5067507;28;20533;-74
2024/04/07 10:00:10;;;;;;;7.00;3.65;;;742.90;1408.00;;;;;;5064214;28;20097;-73
2024/04/07 10:02:40;;;;;;;7.57;5.35;;;742.70;1408.00;;;;;;5061254;28;20493;-75
2024/04/07 10:05:06;;;;;;;7.15;3.47;;;742.80;1408.00;;;;;;5066551;28;20524;-73
2024/04/07 10:07:37;;;;;;;7.50;3.55;;;742.50;1408.00;;;;;;5075501;28;20096;-71
2024/04/07 10:10:05;;;;;;;8.02;3.90;;;717.50;1433.60;;;;;;5068039;28;20040;-76
2024/04/07 10:12:31;;;;;;;6.45;3.75;;;742.40;1433.60;;;;;;5067334;28;20025;-72
2024/04/07 10:15:00;;;;;;;6.50;3.10;;;742.60;1408.00;;;;;;5070572;28;20946;-73
2024/04/07 10:17:30;;;;;;;5.72;3.88;;;717.50;1433.60;;;;;;5066344;28;20470;-73
2024/04/07 10:19:58;;;;;;;6.78;4.05;;;742.40;1459.20;;;;;;5069304;28;20036;-70
2024/04/07 10:22:26;;;;;;;7.03;3.53;;;742.40;1459.20;;;;;;5069404;28;20386;-74
2024/04/07 10:24:53;;;;;;;6.28;4.43;;;742.50;1459.20;;;;;;5070052;28;20028;-70
2024/04/07 10:27:24;;;;;;;11.00;3.67;;;742.50;1433.60;;;;;;5066496;28;20522;-73
2024/04/07 10:29:58;;;;;;;5.10;3.83;;;742.40;1433.60;;;;;;5069716;28;20024;-70
2024/04/07 10:32:29;;;;;;;5.43;3.47;;;742.50;1484.80;;;;;;5072112;28;20064;-80
2024/04/07 10:35:00;;;;;;;5.05;3.55;;;742.50;1459.20;;;;;;5077871;28;20482;-73
2024/04/07 10:37:26;;;;;;;6.40;3.47;;;742.40;1459.20;;;;;;5067206;28;20084;-73
2024/04/07 10:39:52;;;;;;;5.38;3.28;;;742.40;1459.20;;;;;;5071582;28;20517;-77
2024/04/07 10:42:18;;;;;;;5.72;3.88;;;717.50;1459.20;;;;;;5061194;28;20037;-71
2024/04/07 10:44:44;;;;;;;6.45;3.67;;;717.40;1459.20;;;;;;5065311;28;20051;-70
2024/04/07 10:47:11;;;;;;;4.57;2.97;;;716.90;1510.40;;;;;;5061940;28;20154;-74
2024/04/07 10:49:37;;;;;;;7.40;3.83;;;716.90;1510.40;;;;;;5065199;28;20040;-73
2024/04/07 10:52:04;;;;;;;5.78;3.72;;;716.80;1510.40;;;;;;5067271;28;20031;-75
2024/04/07 10:54:33;;;;;;;4.70;3.65;;;691.90;1484.80;;;;;;5070109;28;20389;-74
2024/04/07 10:56:59;;;;;;;10.80;3.80;;;692.00;1459.20;;;;;;5062161;28;20025;-77
2024/04/07 10:59:25;;;;;;;4.50;2.70;;;691.70;1484.80;;;;;;5072607;28;20484;-73
2024/04/07 11:01:50;;;;;;;6.78;4.00;;;691.90;1459.20;;;;;;5066310;28;20027;-70
2024/04/07 11:04:16;;;;;;;7.00;3.78;;;691.60;1484.80;;;;;;5061732;28;20152;-69
2024/04/07 11:06:43;;;;;;;4.57;3.10;;;691.90;1459.20;;;;;;5060163;28;20025;-70
2024/04/07 11:09:09;;;;;;;5.88;3.05;;;692.10;1459.20;;;;;;5057961;28;20061;-69
2024/04/07 11:11:35;;;;;;;5.68;3.25;;;692.00;1459.20;;;;;;5069823;28;20443;-71
2024/04/07 11:14:01;;;;;;;6.65;3.03;;;717.00;1510.40;;;;;;5070772;28;20040;-71
2024/04/07 11:16:27;;;;;;;9.98;3.00;;;692.10;1433.60;;;;;;5057765;28;20031;-77
2024/04/07 11:18:56;;;;;;;4.32;2.72;;;692.10;1433.60;;;;;;5063104;28;20040;-77
2024/04/07 11:21:24;;;;;;;7.82;3.65;;;691.90;1433.60;;;;;;5065843;28;20041;-71
2024/04/07 11:23:50;;;;;;;5.13;2.90;;;691.90;1433.60;;;;;;5059898;28;20025;-71
2024/04/07 11:26:16;;;;;;;4.88;3.15;;;691.90;1459.20;;;;;;5062177;28;20374;-69
2024/04/07 11:28:43;;;;;;;4.85;2.80;;;716.80;1459.20;;;;;;5059110;28;20142;-72
2024/04/07 11:31:09;;;;;;;7.95;3.25;;;717.10;1459.20;;;;;;5072717;28;20416;-75
2024/04/07 11:33:35;;;;;;;8.32;2.80;;;716.80;1459.20;;;;;;5065997;28;20094;-73
2024/04/07 11:36:02;;;;;;;5.45;2.80;;;717.10;1459.20;;;;;;5063467;28;20021;-77
2024/04/07 11:38:30;;;;;;;5.80;3.25;;;717.10;1433.60;;;;;;5061652;28;20441;-70
2024/04/07 11:40:56;;;;;;;5.78;3.00;;;717.10;1433.60;;;;;;5062164;28;20463;-70
2024/04/07 11:43:21;;;;;;;6.20;3.75;;;717.20;1433.60;;;;;;5067779;28;20020;-70
2024/04/07 11:45:47;;;;;;;6.55;3.10;;;717.30;1433.60;;;;;;5075947;28;20028;-72
2024/04/07 11:48:14;;;;;;;5.10;3.13;;;717.50;1433.60;;;;;;5069465;28;20048;-75
2024/04/07 11:50:40;;;;;;;5.90;3.38;;;717.20;1433.60;;;;;;5062271;28;20403;-72
2024/04/07 11:53:05;;;;;;;4.30;3.03;;;717.40;1408.00;;;;;;5067293;28;20029;-77
2024/04/07 11:55:31;;;;;;;5.97;3.60;;;717.20;1408.00;;;;;;5062121;28;20112;-76
2024/04/07 11:57:57;;;;;;;5.75;3.50;;;717.40;1433.60;;;;;;5074849;28;20117;-77
2024/04/07 12:00:23;;;;;;;6.13;3.10;;;717.60;1459.20;;;;;;5060879;28;20521;-71
2024/04/07 12:02:49;;;;;;;7.72;3.35;;;717.70;1459.20;;;;;;5067614;28;20475;-77
2024/04/07 12:05:15;;;;;;;7.25;3.38;;;717.70;1433.60;;;;;;5070712;28;20024;-78
2024/04/07 12:07:41;;;;;;;4.38;3.17;;;742.50;1433.60;;;;;;5063443;28;20583;-77
2024/04/07 12:10:07;;;;;;;3.72;2.88;;;742.40;1433.60;;;;;;5076150;28;20032;-72
2024/04/07 12:12:33;;;;;;;3.92;2.90;;;717.50;1408.00;;;;;;5086101;28;20047;-72